Friday, October 19, 2018, 3:33 AM EDT
Back to Local

KFIG, Clearfield-lawrence Airport

Location: Clearfield, PA, United States Lat: 41.05
Local Time: 3:33 AM EDT ( 7:33 GMT) Lon: -78.417
Time Zone: US/Eastern Elev: 1515 ft

Show me the last for .
Show Decoded

2018-10-19 02:54 METAR KFIG 190654Z AUTO 19004KT 10SM CLR 01/M02 A3033 RMK AO2 SLP280 T00111017 =
2018-10-19 01:54 METAR KFIG 190554Z AUTO 20005KT 10SM CLR 01/M01 A3033 RMK AO2 SLP282 T00111011
                 10056 20011 58006 =
2018-10-19 00:54 METAR KFIG 190454Z AUTO 21005KT 10SM CLR 02/M01 A3034 RMK AO2 SLP283 T00221006
                 400940017 =
2018-10-18 23:54 METAR KFIG 190354Z AUTO 21005KT 10SM CLR 02/M01 A3034 RMK AO2 SLP286 T00171006 =
2018-10-18 22:54 METAR KFIG 190254Z AUTO 22005KT 10SM CLR 02/M01 A3035 RMK AO2 SLP289 T00171006
                 58003 =
2018-10-18 21:54 METAR KFIG 190154Z AUTO 22004KT 10SM CLR 03/M01 A3036 RMK AO2 SLP292 T00331006 =
2018-10-18 20:54 METAR KFIG 190054Z AUTO 20003KT 10SM CLR 04/M01 A3036 RMK AO2 SLP293 T00391011 =
2018-10-18 19:54 METAR KFIG 182354Z AUTO 25005KT 10SM CLR 06/M02 A3036 RMK AO2 SLP292 T00561017
                 10094 20056 58005 =
2018-10-18 18:54 METAR KFIG 182254Z AUTO 26004KT 10SM CLR 06/M02 A3038 RMK AO2 SLP298 T00611017 =
2018-10-18 17:54 METAR KFIG 182154Z AUTO 27007KT 10SM CLR 08/M02 A3037 RMK AO2 SLP295 T00781017 =
2018-10-18 16:54 METAR KFIG 182054Z AUTO 28008G16KT 10SM CLR 09/M02 A3037 RMK AO2 SLP294
                 T00891022 56009 =
2018-10-18 15:54 METAR KFIG 181954Z AUTO 30012KT 10SM CLR 09/M03 A3037 RMK AO2 SLP294 T00891028 =
2018-10-18 14:54 METAR KFIG 181854Z AUTO 25010G14KT 10SM CLR 09/M02 A3039 RMK AO2 SLP299
                 T00891022 =
2018-10-18 13:54 METAR KFIG 181754Z AUTO VRB06KT 10SM CLR 08/M03 A3040 RMK AO2 SLP305 T00781033
                 10083 20022 58006 =
2018-10-18 12:54 METAR KFIG 181654Z AUTO 30009KT 10SM SCT042 08/M03 A3042 RMK AO2 SLP312
                 T00781028 =
2018-10-18 11:54 METAR KFIG 181554Z AUTO VRB06KT 10SM FEW038 07/M03 A3042 RMK AO2 SLP311
                 T00671033 =
2018-10-18 10:54 METAR KFIG 181454Z AUTO 30009KT 10SM FEW036 05/M03 A3042 RMK AO2 SLP313
                 T00501033 51013 =
2018-10-18 09:54 METAR KFIG 181354Z AUTO 33010KT 10SM BKN037 04/M03 A3041 RMK AO2 SLP309
                 T00441033 =
2018-10-18 08:54 METAR KFIG 181254Z AUTO 31005KT 10SM BKN038 03/M04 A3040 RMK AO2 SLP309
                 T00281039 =
2018-10-18 07:54 METAR KFIG 181154Z AUTO 29006KT 10SM BKN042 02/M03 A3038 RMK AO2 SLP301 70002
                 T00221033 10044 20022 51020 =
2018-10-18 06:54 METAR KFIG 181054Z AUTO 27004KT 10SM BKN048 02/M03 A3037 RMK AO2 SLP295
                 T00221028 =
2018-10-18 05:54 METAR KFIG 180954Z AUTO 33009KT 10SM FEW036 OVC050 03/M02 A3034 RMK AO2 SLP284
                 T00281022 =
2018-10-18 04:54 METAR KFIG 180854Z AUTO 32007KT 10SM OVC034 04/M02 A3032 RMK AO2 SLP277
                 T00391017 53015 =
2018-10-18 03:54 METAR KFIG 180754Z AUTO 10SM BKN038 OVC047 04/M02 A3029 RMK AO2 SLP266 T00441017
                 =

Support USWX by starting your Amazon purchase here.